PST,Max TemperatureF,Mean TemperatureF,Min TemperatureF,Max Dew PointF,MeanDew PointF,Min DewpointF,Max Humidity, Mean Humidity, Min Humidity, Max Sea Level PressureIn, Mean Sea Level PressureIn, Min Sea Level PressureIn, Max VisibilityMiles, Mean VisibilityMiles, Min VisibilityMiles, Max Wind SpeedMPH, Mean Wind SpeedMPH, Max Gust SpeedMPH,PrecipitationIn, CloudCover, Events, WindDirDegrees
2012-1-1,65,47,29,43,33,28,96,70,44,30.18,30.15,30.09,10,4,0,7,2,10,0.00,1,Fog,344
2012-1-2,59,46,32,50,41,30,100,86,72,30.31,30.24,30.15,10,4,0,9,1,10,0.00,4,Fog,303
2012-1-3,64,52,40,46,44,41,100,74,48,30.38,30.31,30.25,10,4,0,7,1,8,0.00,2,Fog,330
2012-1-4,68,51,33,46,40,33,100,70,39,30.39,30.31,30.26,10,10,2,9,1,10,0.00,1,,288
2012-1-5,70,53,35,47,36,32,100,63,26,30.31,30.26,30.13,10,5,0,12,1,14,0.00,2,Fog,180
2012-1-6,60,44,28,43,33,27,100,76,51,30.17,30.15,30.09,10,4,0,8,1,9,0.00,1,Fog,271
2012-1-7,70,50,30,42,31,13,100,56,11,30.25,30.17,30.14,10,5,0,20,8,28,0.00,1,Fog,326
2012-1-8,66,49,32,36,30,21,92,60,28,30.23,30.18,30.14,10,10,10,16,2,21,0.00,1,,292
2012-1-9,65,46,27,38,33,27,100,67,34,30.26,30.20,30.14,10,9,2,6,1,8,0.00,0,Fog,270
2012-1-10,64,47,29,40,34,27,100,70,39,30.18,30.13,30.07,10,8,2,6,1,7,0.00,2,Fog,293
2012-1-11,68,48,28,41,34,26,100,65,29,30.13,30.07,30.00,10,9,2,8,2,9,0.00,0,,312
2012-1-12,66,46,25,37,31,25,100,64,28,30.13,30.08,30.02,10,7,0,6,1,6,0.00,0,Fog,20
2012-1-13,66,47,27,36,32,26,92,61,29,30.22,30.16,30.13,10,10,10,6,1,8,0.00,0,,228
2012-1-14,66,47,27,35,32,26,96,62,28,30.19,30.13,30.06,10,9,4,8,1,9,0.00,1,,176
2012-1-15,57,44,30,39,31,24,100,69,38,30.17,30.05,29.96,10,6,0,23,8,28,0.00,2,Fog,323
2012-1-16,54,40,26,26,21,15,75,50,24,30.32,30.24,30.17,10,10,10,16,6,21,0.00,0,,340
2012-1-17,53,37,21,34,28,20,96,70,44,30.41,30.35,30.32,10,10,9,10,1,12,0.00,2,,224
2012-1-18,55,42,28,43,37,28,100,80,59,30.42,30.32,30.25,10,7,0,8,2,10,0.00,6,Fog,275
2012-1-19,50,46,41,48,45,40,100,95,89,30.22,30.10,30.01,9,3,1,14,3,17,0.86,8,Rain,138
2012-1-20,57,53,49,55,51,46,100,93,86,30.03,29.88,29.65,10,2,1,17,6,26,2.77,8,Rain,172
2012-1-21,56,47,38,52,42,35,92,71,50,30.13,29.91,29.65,10,9,6,23,6,30,0.24,5,Rain,275
2012-1-22,52,46,39,50,44,37,100,93,86,30.18,29.98,29.74,10,6,1,22,7,32,1.84,7,Rain,141
2012-1-23,59,50,40,54,46,37,96,77,57,30.16,29.83,29.59,10,6,1,22,4,26,1.26,6,Rain,40
2012-1-24,60,49,38,48,42,37,100,82,64,30.41,30.26,30.16,10,6,0,8,1,9,0.00,5,Fog,164
2012-1-25,65,57,48,54,50,45,96,82,67,30.43,30.36,30.30,10,8,0,8,2,10,0.00,6,Fog,193
2012-1-26,67,56,45,55,52,44,100,82,63,30.34,30.28,30.20,10,3,0,9,2,12,0.02,6,Fog,160
2012-1-27,70,54,37,45,40,29,100,61,22,30.28,30.23,30.17,10,8,0,12,4,13,0.00,0,Fog,332
2012-1-28,64,47,30,38,33,28,100,66,32,30.33,30.27,30.22,10,7,0,9,2,12,0.00,1,Fog,199
2012-1-29,65,48,31,45,36,30,100,70,39,30.27,30.21,30.10,10,8,0,8,1,9,0.00,2,Fog,239
2012-1-30,61,50,39,48,44,37,100,78,55,30.10,30.04,29.98,10,8,0,9,3,10,0.00,4,Fog,197
2012-1-31,56,47,37,47,43,36,100,86,71,30.18,30.11,30.06,10,7,0,10,3,13,0.00,6,Fog,105